^^
Station Historical Data
Daily Summary for June 19, 2017 Units:  Metric    English   Both
« Previous Day
Next Day »
Daily Weekly Monthly Yearly Custom
  High: Low: Average:
Temperature: 27.6 °C 10.5 °C 16 °C
Dew Point: 5.3 °C -5.8 °C 0.2 °C
Humidity: 70% 12% 37%
Wind Speed: 28.8km/h 0km/h 5.3km/h
Wind Gust: 38.6km/h - -
Wind- - WNW
Pressure: 1019.5 hPa 1013.4 hPa -
Precipitation: 0 mm    
Historical Graphs
 
 
Tabular Data for June 19, 2017
Time Temperature Dew Point Pressure Wind Wind Speed Wind Gust Humidity Rainfall Rate (Hourly) solar Conditions
00:05 14.7 °C -0.2 °C 1014.4 hPa Calm     36% 0 mm 0.0 W/m2
00:15 14.5 °C -0.4 °C 1014.4 hPa Calm     36% 0 mm 0.0 W/m2
00:25 14.3 °C 0.2 °C 1014.4 hPa Calm     38% 0 mm 0.0 W/m2
00:30 14.2 °C 0.1 °C 1014.4 hPa Calm     38% 0 mm 0.0 W/m2
00:40 13.7 °C -0.4 °C 1014.4 hPa Calm     38% 0 mm 0.0 W/m2
00:46 13.4 °C -0.3 °C 1014.4 hPa Calm     39% 0 mm 0.0 W/m2
00:51 13.3 °C -0.4 °C 1014.4 hPa Calm     39% 0 mm 0.0 W/m2
00:56 13.3 °C -0.4 °C 1014.4 hPa Calm     39% 0 mm 0.0 W/m2
01:01 13.3 °C -0.4 °C 1014.4 hPa Calm     39% 0 mm 0.0 W/m2
01:07 13.1 °C -0.5 °C 1014.4 hPa Calm     39% 0 mm 0.0 W/m2
01:12 12.9 °C -0.4 °C 1014.1 hPa Calm   8 km/h 40% 0 mm 0.0 W/m2
01:18 12.8 °C -0.5 °C 1014.4 hPa Calm     40% 0 mm 0.0 W/m2
01:23 12.6 °C -0.6 °C 1014.4 hPa Calm     40% 0 mm 0.0 W/m2
01:28 12.4 °C -0.5 °C 1014.1 hPa Calm     41% 0 mm 0.0 W/m2
01:34 12.4 °C -0.8 °C 1014.1 hPa Calm     40% 0 mm 0.0 W/m2
01:39 12.4 °C -0.5 °C 1014.1 hPa NNW 6.4 km/h 9.7 km/h 41% 0 mm 0.0 W/m2
01:44 12.4 °C -0.5 °C 1014.1 hPa NNW 1.4 km/h 6.4 km/h 41% 0 mm 0.0 W/m2
01:49 12.3 °C -0.6 °C 1014.1 hPa Calm     41% 0 mm 0.0 W/m2
01:54 12.3 °C -0.6 °C 1014.1 hPa Calm     41% 0 mm 0.0 W/m2
01:59 12.3 °C -0.6 °C 1014.1 hPa Calm     41% 0 mm 0.0 W/m2
02:04 12.3 °C -0.6 °C 1014.1 hPa Calm   9.7 km/h 41% 0 mm 0.0 W/m2
02:10 12.3 °C -0.3 °C 1014.1 hPa Calm     42% 0 mm 0.0 W/m2
02:19 12.7 °C -0.2 °C 1014.1 hPa Calm   8 km/h 41% 0 mm 0.0 W/m2
02:25 12.6 °C -0.6 °C 1014.1 hPa Calm   8 km/h 40% 0 mm 0.0 W/m2
02:35 12.6 °C -0.3 °C 1014.1 hPa Calm     41% 0 mm 0.0 W/m2
02:45 12.3 °C -0.6 °C 1014.1 hPa Calm   1.6 km/h 41% 0 mm 0.0 W/m2
02:51 11.9 °C -0.9 °C 1014.1 hPa NNW 7.9 km/h 8 km/h 41% 0 mm 0.0 W/m2
03:00 11.6 °C -0.9 °C 1014.1 hPa NNW 3.2 km/h 3.2 km/h 42% 0 mm 0.0 W/m2
03:06 11.6 °C -0.6 °C 1014.1 hPa NNW 1.4 km/h 8 km/h 43% 0 mm 0.0 W/m2
03:11 11.6 °C -0.6 °C 1014.1 hPa NNW 6.4 km/h 9.7 km/h 43% 0 mm 0.0 W/m2
03:21 12.2 °C 0 °C 1014.1 hPa Calm   1.6 km/h 43% 0 mm 0.0 W/m2
03:26 12.7 °C -0.2 °C 1014.1 hPa Calm     41% 0 mm 0.0 W/m2
03:31 12.8 °C -0.1 °C 1014.1 hPa Calm     41% 0 mm 0.0 W/m2
03:36 12.8 °C -0.1 °C 1014.4 hPa Calm     41% 0 mm 0.0 W/m2
03:41 12.5 °C -0.4 °C 1014.1 hPa Calm     41% 0 mm 0.0 W/m2
03:46 12.1 °C -0.8 °C 1014.1 hPa NNW 1.4 km/h 3.2 km/h 41% 0 mm 0.0 W/m2
03:52 11.7 °C -0.8 °C 1014.1 hPa Calm     42% 0 mm 0.0 W/m2
03:57 11.5 °C -0.7 °C 1014.1 hPa Calm     43% 0 mm 0.0 W/m2
04:02 11.6 °C -0.2 °C 1014.1 hPa NNW 1.4 km/h 11.3 km/h 44% 0 mm 0.0 W/m2
04:07 12.3 °C 0.1 °C 1014.1 hPa Calm   1.6 km/h 43% 0 mm 0.0 W/m2
04:13 12.7 °C 0.1 °C 1014.4 hPa Calm     42% 0 mm 0.0 W/m2
04:18 12.7 °C -0.2 °C 1014.4 hPa NNW 3.2 km/h 6.4 km/h 41% 0 mm 0.0 W/m2
04:23 12.4 °C -0.5 °C 1014.4 hPa Calm   9.7 km/h 41% 0 mm 0.0 W/m2
04:28 12.2 °C -0.3 °C 1014.4 hPa Calm     42% 0 mm 0.0 W/m2
04:33 12.1 °C -0.4 °C 1014.4 hPa NNW 3.2 km/h 3.2 km/h 42% 0 mm 0.0 W/m2
04:38 11.9 °C -0.3 °C 1014.4 hPa NNW 6.4 km/h 8 km/h 43% 0 mm 0.0 W/m2
04:43 11.7 °C -0.5 °C 1014.4 hPa NNW 1.4 km/h 6.4 km/h 43% 0 mm 0.0 W/m2
04:49 11.7 °C -0.2 °C 1014.4 hPa Calm     44% 0 mm 0.0 W/m2
04:55 12.3 °C 0.1 °C 1014.4 hPa Calm     43% 0 mm 0.0 W/m2
05:01 12.9 °C 0.3 °C 1014.4 hPa Calm     42% 0 mm 0.0 W/m2
05:10 13.2 °C 0.2 °C 1014.4 hPa Calm     41% 0 mm 0.0 W/m2
05:20 12.2 °C -0.7 °C 1014.4 hPa Calm     41% 0 mm 0.0 W/m2
05:25 11.7 °C -0.5 °C 1014.4 hPa Calm     43% 0 mm 0.0 W/m2
05:30 11.4 °C -0.4 °C 1014.4 hPa NNW 1.4 km/h 9.7 km/h 44% 0 mm 0.0 W/m2
05:35 11.4 °C -0.1 °C 1014.4 hPa NNW 3.2 km/h 3.2 km/h 45% 0 mm 0.0 W/m2
05:40 11.7 °C 0.2 °C 1014.4 hPa NNW 3.2 km/h 6.4 km/h 45% 0 mm 0.0 W/m2
05:46 12.1 °C 0.2 °C 1014.4 hPa Calm     44% 0 mm 0.0 W/m2
05:51 12.4 °C 0.5 °C 1014.4 hPa Calm     44% 0 mm 0.0 W/m2
05:56 12.5 °C 0.3 °C 1014.8 hPa Calm     43% 0 mm 0.0 W/m2
06:03 12.4 °C 0.2 °C 1014.8 hPa Calm     43% 0 mm 0.0 W/m2
06:13 12.3 °C 0.1 °C 1015.1 hPa Calm     43% 0 mm 0.0 W/m2
06:28 12.2 °C 0 °C 1015.1 hPa Calm     43% 0 mm 0.0 W/m2
06:36 12 °C 0.1 °C 1015.1 hPa Calm     44% 0 mm 0.0 W/m2
06:38 11.9 °C 0 °C 1015.1 hPa Calm     44% 0 mm 0.0 W/m2
06:48 11.6 °C 0.1 °C 1015.5 hPa Calm     45% 0 mm 7.0 W/m2
07:10 11.3 °C -0.2 °C 1015.1 hPa Calm     45% 0 mm 16.0 W/m2
07:19 11.2 °C 0 °C 1015.5 hPa Calm     46% 0 mm 30.0 W/m2
07:40 12.2 °C 0.3 °C 1015.1 hPa NNW 7.9 km/h 9.7 km/h 44% 0 mm 32.0 W/m2
07:50 13.3 °C 0.7 °C 1015.1 hPa Calm   1.6 km/h 42% 0 mm 132.0 W/m2
08:01 14.7 °C 1.2 °C 1015.5 hPa Calm     40% 0 mm 183.0 W/m2
08:16 17.2 °C 1.6 °C 1015.5 hPa Calm     35% 0 mm 232.0 W/m2
08:36 18.7 °C 1.7 °C 1015.5 hPa Calm   8 km/h 32% 0 mm 274.0 W/m2
08:47 19.7 °C 1.6 °C 1015.8 hPa Calm     30% 0 mm 316.0 W/m2
09:21 20.8 °C 1.6 °C 1015.8 hPa NNW 9.7 km/h 11.3 km/h 28% 0 mm 390.0 W/m2
09:28 21.1 °C 1.9 °C 1016.1 hPa NNW 13 km/h 14.5 km/h 28% 0 mm 413.0 W/m2
09:38 21.3 °C 2 °C 1016.1 hPa Calm   17.7 km/h 28% 0 mm 432.0 W/m2
09:57 21.8 °C 2 °C 1016.1 hPa NNW 1.4 km/h 19.3 km/h 27% 0 mm 469.0 W/m2
10:02 22 °C 1.6 °C 1016.1 hPa NNW 13 km/h 20.9 km/h 26% 0 mm 478.0 W/m2
10:12 22.2 °C 1.8 °C 1015.8 hPa NNW 7.9 km/h 22.5 km/h 26% 0 mm 492.0 W/m2
10:29 22.8 °C 1.7 °C 1015.8 hPa NNW 14.3 km/h 19.3 km/h 25% 0 mm 513.0 W/m2
12:08 25.4 °C 1.5 °C 1015.1 hPa NNW 6.4 km/h 19.3 km/h 21% 0 mm 573.0 W/m2
12:23 25.8 °C 1.1 °C 1014.8 hPa NNW 19.5 km/h 19.5 km/h 20% 0 mm 570.0 W/m2
12:34 25.8 °C 0.4 °C 1014.8 hPa NNW 13 km/h 17.7 km/h 19% 0 mm 561.0 W/m2
12:44 25.9 °C 0.5 °C 1014.8 hPa NNW 14.3 km/h 20.9 km/h 19% 0 mm 550.0 W/m2
13:04 26 °C 0.6 °C 1014.4 hPa NNW 7.9 km/h 12.9 km/h 19% 0 mm 533.0 W/m2
13:14 26.2 °C 0 °C 1014.4 hPa NNW 11.1 km/h 12.9 km/h 18% 0 mm 517.0 W/m2
13:28 26.4 °C 0.2 °C 1014.1 hPa NNW 6.4 km/h 14.5 km/h 18% 0 mm 503.0 W/m2
13:34 26.6 °C 0.3 °C 1014.1 hPa Calm     18% 0 mm 489.0 W/m2
13:49 26.8 °C -1.1 °C 1013.8 hPa NW 11.1 km/h 12.9 km/h 16% 0 mm 464.0 W/m2
14:00 27.1 °C -1.8 °C 1013.4 hPa NW 7.9 km/h 19.3 km/h 15% 0 mm 441.0 W/m2
14:19 27.3 °C -1.6 °C 1013.4 hPa WNW 13 km/h 24.1 km/h 15% 0 mm 410.0 W/m2
14:27 27.4 °C -2.5 °C 1013.4 hPa WNW 17.7 km/h 22.5 km/h 14% 0 mm 390.0 W/m2
14:35 27.6 °C -3.3 °C 1013.4 hPa West 27.4 km/h 38.6 km/h 13% 0 mm 364.0 W/m2
14:45 27.5 °C -3.4 °C 1013.4 hPa West 17.7 km/h 30.6 km/h 13% 0 mm 341.0 W/m2
15:00 27.4 °C -3.5 °C 1013.4 hPa West 20.9 km/h 27.4 km/h 13% 0 mm 318.0 W/m2
15:10 27 °C -3.8 °C 1013.4 hPa WSW 22.7 km/h 32.2 km/h 13% 0 mm 278.0 W/m2
15:25 26.8 °C -3.9 °C 1013.8 hPa West 17.7 km/h 27.4 km/h 13% 0 mm 234.0 W/m2
15:40 26.6 °C -4.1 °C 1013.8 hPa West 28.8 km/h 30.6 km/h 13% 0 mm 188.0 W/m2
15:55 26.2 °C -4.4 °C 1014.1 hPa WSW 22.7 km/h 33.8 km/h 13% 0 mm 137.0 W/m2
16:10 25.7 °C -5.8 °C 1014.1 hPa WSW 19.5 km/h 32.2 km/h 12% 0 mm 90.0 W/m2
16:31 24.7 °C -0.5 °C 1014.4 hPa WSW 13 km/h 24.1 km/h 19% 0 mm 51.0 W/m2
16:46 22.7 °C 2.2 °C 1014.8 hPa WSW 17.7 km/h 20.9 km/h 26% 0 mm 14.0 W/m2
17:01 20.8 °C 3 °C 1015.1 hPa WSW 11.1 km/h 17.7 km/h 31% 0 mm 7.0 W/m2
17:15 19.7 °C 3.4 °C 1015.5 hPa WSW 20.9 km/h 29 km/h 34% 0 mm 0.0 W/m2
17:24 19.2 °C 3.4 °C 1015.5 hPa SW 14.3 km/h 17.7 km/h 35% 0 mm 0.0 W/m2
17:33 18.6 °C 3.6 °C 1015.8 hPa SW 9.7 km/h 12.9 km/h 37% 0 mm 0.0 W/m2
20:57 12.3 °C 4 °C 1019.2 hPa SW 11.1 km/h 11.3 km/h 57% 0 mm 0.0 W/m2
21:12 11.8 °C 4.3 °C 1019.5 hPa SW 11.1 km/h 12.9 km/h 60% 0 mm 0.0 W/m2
21:27 11.5 °C 4.7 °C 1019.5 hPa SW 16.3 km/h 16.3 km/h 63% 0 mm 0.0 W/m2
21:33 11.3 °C 5 °C 1019.5 hPa SW 13 km/h 17.7 km/h 65% 0 mm 0.0 W/m2
21:48 10.9 °C 5 °C 1019.5 hPa SW 7.9 km/h 12.9 km/h 67% 0 mm 0.0 W/m2
22:06 10.6 °C 5.1 °C 1019.2 hPa SW 11.1 km/h 14.5 km/h 69% 0 mm 0.0 W/m2
22:15 10.6 °C 5.1 °C 1019.2 hPa SW 13 km/h 14.5 km/h 69% 0 mm 0.0 W/m2
22:20 10.5 °C 5.3 °C 1019.2 hPa SW 9.7 km/h 11.3 km/h 70% 0 mm 0.0 W/m2
Canyon Roadhouse, Fishriver Canyon, Namibia
Compliments of Weather Underground - 2.25 mb